Time;durP1;ratioP1;P1;durP2;ratioP2;P2;SDS_P1;SDS_P2;PMS_P1;PMS_P2;Temp;Humidity;BMP_temperature;BMP_pressure;BME280_temperature;BME280_humidity;BME280_pressure;Samples;Min_cycle;Max_cycle;Signal;HPM_P1;HPM_P2
2023/04/19 00:02:10;;;;;;;20.45;14.10;;;;;;;8.80;82.37;102544.97;5006229;28;20030;-86
2023/04/19 00:04:36;;;;;;;21.92;13.68;;;;;;;8.89;82.64;102554.63;4975007;28;20038;-86
2023/04/19 00:07:02;;;;;;;23.52;13.95;;;;;;;8.88;81.80;102551.00;4991241;28;20031;-86
2023/04/19 00:09:28;;;;;;;21.13;14.18;;;;;;;8.93;81.72;102546.28;4991168;28;20034;-86
2023/04/19 00:11:54;;;;;;;21.17;13.05;;;;;;;9.00;81.78;102548.75;4975505;28;20479;-86
2023/04/19 00:14:19;;;;;;;20.33;14.43;;;;;;;8.95;81.38;102538.09;4998862;28;20137;-86
2023/04/19 00:16:44;;;;;;;20.80;14.23;;;;;;;9.02;81.65;102545.06;4992664;28;20029;-86
2023/04/19 00:19:10;;;;;;;18.13;12.70;;;;;;;9.06;81.15;102544.00;5012812;28;20105;-86
2023/04/19 00:21:35;;;;;;;20.60;13.15;;;;;;;9.11;81.88;102541.09;5009751;28;20843;-85
2023/04/19 00:24:02;;;;;;;21.23;13.30;;;;;;;9.15;81.55;102545.47;5010952;28;20037;-86
2023/04/19 00:26:27;;;;;;;21.75;13.35;;;;;;;9.09;81.60;102526.69;4993016;28;20038;-85
2023/04/19 00:28:52;;;;;;;19.27;12.02;;;;;;;9.16;81.63;102536.38;4973947;28;20040;-86
2023/04/19 00:31:18;;;;;;;21.10;12.65;;;;;;;9.15;82.22;102534.63;4990391;28;20755;-85
2023/04/19 00:33:44;;;;;;;20.60;12.85;;;;;;;9.19;81.36;102537.16;4994176;28;20044;-86
2023/04/19 00:36:09;;;;;;;19.15;12.25;;;;;;;9.19;81.90;102534.44;5007375;28;20069;-86
2023/04/19 00:38:35;;;;;;;20.35;12.25;;;;;;;9.20;81.76;102530.75;5000211;28;20077;-86
2023/04/19 00:41:01;;;;;;;20.63;13.27;;;;;;;9.19;81.61;102528.13;4974427;28;20042;-87
2023/04/19 00:43:26;;;;;;;16.92;12.00;;;;;;;9.24;81.29;102531.53;4990579;28;20034;-87
2023/04/19 00:45:52;;;;;;;20.35;13.40;;;;;;;9.27;81.31;102535.94;4970263;28;20090;-86
2023/04/19 00:48:17;;;;;;;19.50;13.60;;;;;;;9.28;80.68;102533.19;4967847;28;20141;-86
2023/04/19 00:50:44;;;;;;;20.63;12.45;;;;;;;9.32;80.96;102540.25;4987369;28;20046;-85
2023/04/19 00:53:10;;;;;;;19.50;12.02;;;;;;;9.33;81.25;102535.72;4971448;28;20023;-86
2023/04/19 00:55:38;;;;;;;22.75;12.90;;;;;;;9.29;81.67;102526.81;4987231;28;20042;-86
2023/04/19 00:58:05;;;;;;;20.65;12.63;;;;;;;9.29;81.57;102536.78;5008321;28;20282;-85
2023/04/19 01:00:31;;;;;;;20.38;13.63;;;;;;;9.29;81.87;102529.53;4961272;28;20046;-86
2023/04/19 01:02:57;;;;;;;19.77;13.70;;;;;;;9.28;81.93;102533.19;4991684;28;20052;-86
2023/04/19 01:05:22;;;;;;;22.77;13.57;;;;;;;9.30;81.84;102531.28;4964454;28;20031;-86
2023/04/19 01:07:48;;;;;;;22.13;13.25;;;;;;;9.29;81.79;102532.22;4977150;28;20031;-85
2023/04/19 01:10:14;;;;;;;18.92;12.20;;;;;;;9.31;81.65;102532.16;4991821;28;20105;-87
2023/04/19 01:12:40;;;;;;;27.08;12.68;;;;;;;9.25;81.66;102524.28;4966826;28;20096;-86
2023/04/19 01:15:06;;;;;;;21.45;12.77;;;;;;;9.28;81.95;102524.13;4968941;28;20110;-86
2023/04/19 01:17:32;;;;;;;19.45;12.52;;;;;;;9.32;82.43;102532.09;4969822;28;20447;-87
2023/04/19 01:20:07;;;;;;;21.17;13.80;;;;;;;9.32;81.86;102532.09;4968122;28;20163;-85
2023/04/19 01:22:36;;;;;;;22.55;13.18;;;;;;;9.31;82.44;102527.63;4968680;28;20283;-86
2023/04/19 01:25:03;;;;;;;23.17;12.05;;;;;;;9.31;82.32;102527.63;4953013;28;20026;-85
2023/04/19 01:27:29;;;;;;;21.25;12.38;;;;;;;9.28;82.63;102519.59;4953809;28;20557;-85
2023/04/19 01:29:56;;;;;;;22.30;13.25;;;;;;;9.30;82.68;102522.25;4959824;28;20018;-85
2023/04/19 01:32:25;;;;;;;24.73;13.13;;;;;;;9.25;82.95;102514.28;4969500;28;20155;-85
2023/04/19 01:34:51;;;;;;;19.67;12.55;;;;;;;9.30;83.05;102523.13;4973987;28;20117;-86
2023/04/19 01:37:16;;;;;;;20.40;13.32;;;;;;;9.31;82.91;102530.31;4954448;28;20051;-85
2023/04/19 01:39:41;;;;;;;20.48;12.70;;;;;;;9.30;83.03;102528.56;4952904;28;20037;-85
2023/04/19 01:42:07;;;;;;;25.77;12.82;;;;;;;9.33;83.46;102533.00;4953495;28;20522;-86
2023/04/19 01:44:32;;;;;;;22.02;13.93;;;;;;;9.32;83.08;102523.94;4961052;28;20770;-87
2023/04/19 01:46:58;;;;;;;20.38;12.65;;;;;;;9.36;84.16;102527.44;4947311;28;20403;-87
2023/04/19 01:49:24;;;;;;;24.60;13.85;;;;;;;9.28;84.01;102518.69;4974383;28;20064;-86
2023/04/19 01:51:49;;;;;;;23.15;12.30;;;;;;;9.35;84.14;102523.84;4946989;28;20022;-86
2023/04/19 01:54:14;;;;;;;21.98;13.20;;;;;;;9.32;84.21;102517.63;4958329;28;20034;-86
2023/04/19 01:56:40;;;;;;;20.58;12.75;;;;;;;9.34;84.47;102523.91;4966004;28;20065;-86
2023/04/19 01:59:05;;;;;;;20.20;12.55;;;;;;;9.33;83.90;102509.44;4951486;28;20038;-88
2023/04/19 02:01:31;;;;;;;21.45;13.35;;;;;;;9.33;84.72;102508.56;4967566;28;20030;-91
2023/04/19 02:03:57;;;;;;;23.15;14.38;;;;;;;9.37;84.85;102504.75;4957092;28;20050;-90
2023/04/19 02:06:22;;;;;;;22.52;14.05;;;;;;;9.38;84.93;102507.41;4973778;28;20391;-90
2023/04/19 02:08:49;;;;;;;20.05;13.05;;;;;;;9.43;84.64;102510.81;4968907;28;20553;-89
2023/04/19 02:11:14;;;;;;;21.20;13.07;;;;;;;9.40;85.44;102493.75;4952089;28;20046;-88
2023/04/19 02:13:40;;;;;;;20.58;13.65;;;;;;;9.48;85.24;102509.75;4969008;28;20150;-89
2023/04/19 02:16:06;;;;;;;19.73;12.57;;;;;;;9.48;85.57;102502.50;4971201;28;20098;-90
2023/04/19 02:18:34;;;;;;;24.17;13.95;;;;;;;9.50;85.34;102502.41;4967980;28;20483;-90
2023/04/19 02:21:00;;;;;;;20.98;13.10;;;;;;;9.50;85.21;102505.13;4967490;28;20038;-89
2023/04/19 02:23:25;;;;;;;19.83;13.18;;;;;;;9.53;86.06;102503.19;4967493;28;20129;-89
2023/04/19 02:25:51;;;;;;;26.45;13.75;;;;;;;9.57;85.40;102499.38;4952057;28;20095;-88
2023/04/19 02:28:16;;;;;;;23.50;14.23;;;;;;;9.57;85.74;102504.81;4952183;28;20466;-88
2023/04/19 02:30:43;;;;;;;23.55;13.38;;;;;;;9.60;85.36;102506.50;4969062;28;20407;-88
2023/04/19 02:33:09;;;;;;;21.38;13.45;;;;;;;9.62;85.63;102512.78;4952723;28;20463;-91
2023/04/19 02:35:34;;;;;;;23.95;13.68;;;;;;;9.60;85.15;102493.81;4967007;28;20035;-88
2023/04/19 02:38:02;;;;;;;21.45;12.80;;;;;;;9.66;85.33;102506.28;4946066;28;20113;-88
2023/04/19 02:40:27;;;;;;;21.52;13.82;;;;;;;9.69;85.20;102503.41;4962976;28;20031;-88
2023/04/19 02:42:52;;;;;;;20.27;12.88;;;;;;;9.66;85.08;102507.16;4951593;28;20506;-88
2023/04/19 02:45:20;;;;;;;24.17;13.15;;;;;;;9.68;84.72;102507.09;4970721;28;20518;-89
2023/04/19 02:47:45;;;;;;;21.88;14.13;;;;;;;9.69;85.21;102507.00;4933797;28;20118;-89
2023/04/19 02:50:12;;;;;;;22.35;13.60;;;;;;;9.67;85.16;102500.78;4955614;28;20485;-88
2023/04/19 02:52:44;;;;;;;22.92;13.05;;;;;;;9.69;85.05;102507.00;4934505;28;20031;-88
2023/04/19 02:55:09;;;;;;;19.70;12.68;;;;;;;9.67;85.36;102497.16;4951610;28;20042;-89
2023/04/19 02:57:35;;;;;;;25.95;14.30;;;;;;;9.65;85.57;102507.19;4974151;28;20038;-88
2023/04/19 03:00:00;;;;;;;24.52;14.27;;;;;;;9.63;85.17;102509.13;4977370;28;20085;-90
2023/04/19 03:02:26;;;;;;;19.05;12.35;;;;;;;9.64;84.90;102506.31;4949577;28;20459;-91
2023/04/19 03:04:54;;;;;;;20.42;12.38;;;;;;;9.59;85.46;102507.47;4961085;28;20117;-87
2023/04/19 03:07:19;;;;;;;24.33;14.20;;;;;;;9.57;85.55;102502.09;4934902;28;20403;-89
2023/04/19 03:09:45;;;;;;;19.60;11.48;;;;;;;9.59;85.50;102512.91;4972656;28;20034;-89
2023/04/19 03:12:10;;;;;;;18.13;12.05;;;;;;;9.51;85.59;102502.34;4953784;28;20023;-88
2023/04/19 03:14:36;;;;;;;20.05;12.38;;;;;;;9.51;85.46;102501.47;4953206;28;20113;-88
2023/04/19 03:17:02;;;;;;;18.50;11.68;;;;;;;9.50;84.94;102506.00;4939568;28;20475;-88
2023/04/19 03:19:28;;;;;;;17.98;11.85;;;;;;;9.50;85.68;102506.00;4933743;28;20031;-88
2023/04/19 03:21:54;;;;;;;17.13;11.50;;;;;;;9.48;85.64;102504.31;4957526;28;20039;-89
2023/04/19 03:24:28;;;;;;;20.42;12.02;;;;;;;9.44;85.47;102503.56;4933700;28;20035;-91
2023/04/19 03:26:55;;;;;;;20.00;11.45;;;;;;;9.43;85.61;102499.09;4957059;28;20030;-91
2023/04/19 03:29:25;;;;;;;21.85;11.60;;;;;;;9.45;85.24;102506.19;4978221;28;20062;-88
2023/04/19 03:32:03;;;;;;;18.92;11.40;;;;;;;9.41;85.57;102495.53;4960912;28;20074;-88
2023/04/19 03:34:29;;;;;;;17.45;11.35;;;;;;;9.42;85.62;102495.47;4972999;28;20039;-88
2023/04/19 03:36:54;;;;;;;18.10;11.48;;;;;;;9.40;85.26;102491.94;4968949;28;20039;-88
2023/04/19 03:39:20;;;;;;;21.27;11.50;;;;;;;9.40;85.51;102491.03;4973550;28;20043;-89
2023/04/19 03:41:49;;;;;;;20.20;11.00;;;;;;;9.38;85.83;102490.25;4959502;28;20090;-88
2023/04/19 03:44:20;;;;;;;19.90;11.27;;;;;;;9.37;85.51;102488.44;4955090;28;20034;-88
2023/04/19 03:46:47;;;;;;;18.38;11.68;;;;;;;9.35;86.10;102483.09;4954914;28;20067;-89
2023/04/19 03:49:15;;;;;;;18.40;11.55;;;;;;;9.37;85.78;102493.88;4972139;28;20039;-88
2023/04/19 03:51:43;;;;;;;17.08;11.20;;;;;;;9.38;85.92;102496.56;4956015;28;20066;-88
2023/04/19 03:54:10;;;;;;;21.00;11.93;;;;;;;9.34;86.13;102488.59;4972715;28;20122;-89
2023/04/19 03:56:36;;;;;;;17.83;10.77;;;;;;;9.34;85.50;102497.63;4957613;28;20495;-92
2023/04/19 03:59:01;;;;;;;19.10;11.60;;;;;;;9.34;85.88;102492.19;4981096;28;20066;-89
2023/04/19 04:01:29;;;;;;;18.63;11.77;;;;;;;9.33;85.50;102503.13;4965468;28;20031;-89
2023/04/19 04:03:55;;;;;;;16.73;10.52;;;;;;;9.29;84.94;102487.91;4937109;28;20039;-89
2023/04/19 04:06:20;;;;;;;18.67;10.85;;;;;;;9.33;85.16;102495.84;4959575;28;20453;-92
2023/04/19 04:08:46;;;;;;;16.58;10.30;;;;;;;9.30;85.32;102497.81;4983610;28;20049;-88
2023/04/19 04:11:11;;;;;;;19.50;10.40;;;;;;;9.32;85.50;102502.22;4979420;28;20066;-89
2023/04/19 04:13:37;;;;;;;15.90;10.98;;;;;;;9.31;85.00;102492.31;4982332;28;20022;-88
2023/04/19 04:16:14;;;;;;;16.90;11.07;;;;;;;9.22;85.35;102481.81;4972033;28;20081;-88
2023/04/19 04:18:39;;;;;;;18.52;10.65;;;;;;;9.28;85.80;102491.53;4972120;28;20066;-89
2023/04/19 04:21:08;;;;;;;18.13;10.60;;;;;;;9.26;85.35;102498.88;4960181;28;20096;-89
2023/04/19 04:23:37;;;;;;;16.98;9.77;;;;;;;9.21;85.28;102485.47;4952164;28;20105;-91
2023/04/19 04:26:05;;;;;;;14.10;9.65;;;;;;;9.21;85.02;102499.06;4945010;28;20642;-91
2023/04/19 04:28:50;;;;;;;18.08;11.15;;;;;;;9.16;85.01;102499.25;4958764;28;20035;-88
2023/04/19 04:31:18;;;;;;;16.30;10.30;;;;;;;9.11;84.63;102497.66;4963036;28;20031;-88
2023/04/19 04:33:46;;;;;;;15.52;9.90;;;;;;;9.04;84.97;102497.00;4951625;29;20461;-88
2023/04/19 04:36:14;;;;;;;15.38;10.00;;;;;;;9.03;84.95;102505.22;4955815;28;20448;-88
2023/04/19 04:38:40;;;;;;;15.65;9.73;;;;;;;8.98;85.25;102501.81;4952491;28;20491;-90
2023/04/19 04:41:05;;;;;;;17.17;10.10;;;;;;;8.90;85.59;102494.81;4952995;28;20035;-89
2023/04/19 04:43:31;;;;;;;14.93;9.27;;;;;;;8.90;85.61;102508.41;4971430;28;20034;-90
2023/04/19 04:45:57;;;;;;;14.27;9.95;;;;;;;8.87;85.40;102513.09;4957896;28;20030;-90
2023/04/19 04:48:24;;;;;;;16.70;8.75;;;;;;;8.79;85.36;102510.66;4970862;28;20491;-89
2023/04/19 04:50:50;;;;;;;15.25;8.77;;;;;;;8.75;85.12;102514.44;4956695;28;20046;-89
2023/04/19 04:53:16;;;;;;;15.48;9.10;;;;;;;8.70;85.14;102513.72;4953829;28;20425;-90
2023/04/19 04:55:44;;;;;;;14.25;8.82;;;;;;;8.69;84.90;102517.38;4971647;28;20177;-86
2023/04/19 04:58:11;;;;;;;13.55;8.27;;;;;;;8.72;84.14;102511.84;4969647;28;20042;-89
2023/04/19 05:00:52;;;;;;;14.32;7.55;;;;;;;8.72;83.72;102519.06;4947195;28;20419;-88
2023/04/19 05:03:18;;;;;;;12.38;7.38;;;;;;;8.66;84.04;102514.78;4969209;28;20026;-88
2023/04/19 05:05:49;;;;;;;10.35;7.38;;;;;;;8.64;83.75;102512.13;4952908;28;20410;-88
2023/04/19 05:08:16;;;;;;;21.92;7.93;;;;;;;8.58;84.37;102506.94;4971063;28;20031;-89
2023/04/19 05:10:44;;;;;;;11.10;7.22;;;;;;;8.61;84.33;102523.09;4954369;28;20051;-90
2023/04/19 05:13:11;;;;;;;10.68;6.97;;;;;;;8.64;83.49;102532.94;4953909;28;20035;-87
2023/04/19 05:15:37;;;;;;;11.95;7.25;;;;;;;8.64;83.75;102522.97;4959043;28;20149;-91
2023/04/19 05:18:03;;;;;;;11.00;7.57;;;;;;;8.65;83.48;102527.47;4954892;28;20487;-88
2023/04/19 05:20:29;;;;;;;11.18;7.45;;;;;;;8.63;83.32;102528.47;4948975;28;20143;-90
2023/04/19 05:23:02;;;;;;;12.27;7.40;;;;;;;8.61;83.65;102527.63;4964507;28;20031;-90
2023/04/19 05:25:30;;;;;;;15.75;8.02;;;;;;;8.80;83.03;102519.69;4953605;28;20038;-90
2023/04/19 05:27:56;;;;;;;11.45;7.63;;;;;;;8.92;82.30;102524.66;4951994;28;20031;-90
2023/04/19 05:30:23;;;;;;;10.70;7.47;;;;;;;8.93;82.87;102519.16;4968419;28;20039;-91
2023/04/19 05:32:50;;;;;;;12.60;7.25;;;;;;;8.89;82.46;102514.78;4966168;28;20076;-91
2023/04/19 05:35:16;;;;;;;24.75;8.38;;;;;;;8.81;83.11;102522.34;4964396;28;20043;-91
2023/04/19 05:37:42;;;;;;;12.05;7.57;;;;;;;8.73;82.30;102523.59;4953797;28;20475;-89
2023/04/19 05:40:11;;;;;;;13.98;7.60;;;;;;;8.66;82.87;102533.75;4954790;28;20023;-92
2023/04/19 05:42:37;;;;;;;15.15;7.65;;;;;;;8.59;83.35;102533.13;4953750;28;20045;-91
2023/04/19 05:45:03;;;;;;;12.63;6.85;;;;;;;8.52;82.71;102530.69;4955095;28;20034;-91
2023/04/19 05:47:29;;;;;;;10.68;7.43;;;;;;;8.45;83.28;102521.00;4951070;28;20027;-92
2023/04/19 05:50:16;;;;;;;11.38;7.15;;;;;;;8.47;82.91;102528.13;4937012;29;20487;-91
2023/04/19 05:52:46;;;;;;;13.00;7.13;;;;;;;8.42;82.36;102519.28;4969388;28;20034;-89
2023/04/19 05:55:12;;;;;;;11.15;7.80;;;;;;;8.50;82.80;102519.03;4989404;28;20454;-91
2023/04/19 05:57:41;;;;;;;16.33;7.82;;;;;;;8.50;82.29;102519.03;4978508;28;20174;-89
2023/04/19 06:00:10;;;;;;;12.10;6.97;;;;;;;8.48;82.33;102523.59;4967405;28;20135;-89
2023/04/19 06:02:39;;;;;;;9.70;7.10;;;;;;;8.47;81.52;102514.56;4979107;28;20100;-89
2023/04/19 06:05:05;;;;;;;9.48;7.25;;;;;;;8.48;82.36;102529.91;4948133;28;20412;-90
2023/04/19 06:07:32;;;;;;;14.27;6.90;;;;;;;8.30;81.30;102495.28;4959835;28;20402;-88
2023/04/19 06:09:57;;;;;;;10.68;6.32;;;;;;;8.47;80.80;102520.00;4970263;28;20037;-89
2023/04/19 06:12:22;;;;;;;14.60;6.78;;;;;;;8.59;80.98;102529.53;4953265;28;20415;-87
2023/04/19 06:14:48;;;;;;;10.93;7.53;;;;;;;8.62;78.86;102524.84;4959286;28;20034;-90
2023/04/19 06:17:15;;;;;;;8.95;6.13;;;;;;;8.66;79.17;102512.94;4946182;29;20050;-89
2023/04/19 06:19:41;;;;;;;11.68;7.05;;;;;;;8.85;78.74;102536.66;4952304;28;20547;-90
2023/04/19 06:22:06;;;;;;;9.23;6.35;;;;;;;9.04;77.94;102536.84;4950236;28;20121;-88
2023/04/19 06:24:32;;;;;;;13.32;6.70;;;;;;;9.22;76.56;102527.09;4968240;28;20033;-88
2023/04/19 06:26:57;;;;;;;10.88;6.40;;;;;;;9.29;76.88;102532.22;4977751;28;20391;-90
2023/04/19 06:29:24;;;;;;;9.82;6.22;;;;;;;9.33;74.30;102547.47;4950937;28;20034;-89
2023/04/19 06:31:50;;;;;;;12.52;7.13;;;;;;;9.37;75.22;102534.63;4968755;28;20061;-90
2023/04/19 06:34:15;;;;;;;10.00;6.90;;;;;;;9.44;73.82;102528.00;4969857;28;20023;-88
2023/04/19 06:36:41;;;;;;;13.38;7.43;;;;;;;9.54;72.97;102523.09;4973929;28;20359;-88
2023/04/19 06:39:06;;;;;;;8.57;6.40;;;;;;;9.66;71.74;102536.16;4950431;28;20038;-87
2023/04/19 06:41:31;;;;;;;12.10;6.70;;;;;;;9.71;72.33;102526.88;4934645;28;20547;-89
2023/04/19 06:43:57;;;;;;;11.15;6.25;;;;;;;9.81;72.05;102523.78;4940594;28;20062;-90
2023/04/19 06:46:22;;;;;;;10.32;6.57;;;;;;;10.05;69.05;102511.84;4950199;28;20042;-87
2023/04/19 06:48:48;;;;;;;11.77;6.32;;;;;;;10.58;68.99;102519.47;4949062;28;20110;-86
2023/04/19 06:51:14;;;;;;;12.02;6.18;;;;;;;10.73;66.22;102513.34;4951399;28;20039;-92
2023/04/19 06:53:39;;;;;;;11.05;6.80;;;;;;;10.75;66.66;102526.88;4967633;28;20042;-91
2023/04/19 06:56:05;;;;;;;9.50;5.60;;;;;;;10.55;65.47;102516.91;4970108;28;20045;-90
2023/04/19 06:58:31;;;;;;;9.80;5.88;;;;;;;10.55;65.65;102522.34;4979495;28;20043;-88
2023/04/19 07:00:57;;;;;;;10.82;6.22;;;;;;;11.02;63.89;102512.91;4973484;28;20042;-90
2023/04/19 07:03:22;;;;;;;10.10;6.38;;;;;;;11.47;62.48;102521.59;4954374;28;20142;-88
2023/04/19 07:05:48;;;;;;;10.63;5.60;;;;;;;11.49;62.40;102524.22;4948291;28;20094;-91
2023/04/19 07:08:14;;;;;;;14.85;6.55;;;;;;;11.28;63.47;102517.09;4943355;29;20050;-92
2023/04/19 07:10:42;;;;;;;10.88;5.93;;;;;;;11.12;62.64;102519.69;4951414;28;20035;-86
2023/04/19 07:13:09;;;;;;;9.20;5.53;;;;;;;10.97;62.04;102526.75;4957533;28;20035;-88
2023/04/19 07:15:34;;;;;;;7.47;5.93;;;;;;;10.84;61.61;102521.00;4970153;28;20038;-88
2023/04/19 07:18:00;;;;;;;10.98;5.70;;;;;;;11.25;62.73;102531.78;4979364;28;20030;-86
2023/04/19 07:20:25;;;;;;;6.88;5.35;;;;;;;11.30;59.16;102516.06;4952234;28;20035;-90
2023/04/19 07:22:50;;;;;;;8.07;5.93;;;;;;;11.22;60.50;102523.72;4955095;28;20039;-89
2023/04/19 07:25:16;;;;;;;9.98;6.10;;;;;;;11.14;61.00;102525.94;4979296;28;20035;-88
2023/04/19 07:27:41;;;;;;;9.55;5.90;;;;;;;10.96;60.94;102525.88;4949599;28;20039;-87
2023/04/19 07:30:07;;;;;;;11.50;5.95;;;;;;;10.84;59.95;102520.09;4968271;28;20038;-89
2023/04/19 07:32:32;;;;;;;8.25;5.90;;;;;;;10.92;61.08;102524.25;4951336;28;20027;-89
2023/04/19 07:34:57;;;;;;;10.85;5.97;;;;;;;11.08;61.54;102535.28;4948970;28;20046;-89
2023/04/19 07:37:23;;;;;;;9.32;6.00;;;;;;;11.07;60.17;102530.81;4951132;28;20031;-89
2023/04/19 07:39:48;;;;;;;9.38;6.20;;;;;;;10.98;59.48;102523.06;4949605;29;20085;-88
2023/04/19 07:42:14;;;;;;;9.70;5.57;;;;;;;10.93;60.62;102519.69;4952357;28;20166;-86
2023/04/19 07:44:39;;;;;;;10.05;5.97;;;;;;;11.09;60.02;102528.00;4978396;28;20045;-87
2023/04/19 07:47:05;;;;;;;9.60;5.80;;;;;;;11.21;59.27;102519.25;4984535;28;20033;-88
2023/04/19 07:49:32;;;;;;;7.28;5.45;;;;;;;11.39;60.03;102522.94;4964179;28;20395;-88
2023/04/19 07:52:01;;;;;;;10.98;6.55;;;;;;;11.61;60.21;102514.53;4987221;28;20046;-88
2023/04/19 07:54:28;;;;;;;11.07;5.95;;;;;;;11.72;58.03;102513.06;4950005;28;20031;-88
2023/04/19 07:56:53;;;;;;;10.30;6.05;;;;;;;11.67;57.97;102515.13;4959102;28;20050;-87
2023/04/19 07:59:18;;;;;;;9.32;6.50;;;;;;;11.61;57.44;102512.72;4958873;28;20031;-88
2023/04/19 08:01:44;;;;;;;11.05;6.18;;;;;;;11.52;58.74;102502.28;4952524;28;20030;-89
2023/04/19 08:04:10;;;;;;;11.75;6.00;;;;;;;11.53;57.21;102514.94;4953337;28;20051;-88
2023/04/19 08:06:38;;;;;;;9.68;5.95;;;;;;;11.50;59.26;102501.47;4967432;28;20096;-85
2023/04/19 08:09:04;;;;;;;9.35;6.03;;;;;;;11.57;57.34;102496.59;4953578;28;20340;-89
2023/04/19 08:11:30;;;;;;;11.55;7.20;;;;;;;11.64;59.57;102493.47;4964059;28;20510;-91
2023/04/19 08:13:55;;;;;;;11.93;6.50;;;;;;;11.96;58.55;102507.34;4957546;28;20070;-87
2023/04/19 08:16:20;;;;;;;8.63;5.70;;;;;;;12.02;55.83;102497.97;4969494;28;20035;-90
2023/04/19 08:18:50;;;;;;;8.43;5.82;;;;;;;12.11;57.76;102498.34;4959745;28;20569;-86
2023/04/19 08:21:15;;;;;;;9.88;5.57;;;;;;;12.17;54.15;102499.88;4937824;28;20573;-87
2023/04/19 08:23:41;;;;;;;11.73;6.05;;;;;;;12.08;55.91;102506.72;4956175;28;20130;-88
2023/04/19 08:26:06;;;;;;;8.50;5.63;;;;;;;12.22;55.84;102504.16;4979740;28;20335;-86
2023/04/19 08:28:31;;;;;;;9.00;5.60;;;;;;;12.40;55.95;102491.38;4981576;28;20134;-86
2023/04/19 08:30:58;;;;;;;9.07;5.72;;;;;;;12.56;54.44;102499.59;4976152;28;20066;-88
2023/04/19 08:33:23;;;;;;;9.00;5.15;;;;;;;12.75;53.46;102494.91;4963373;28;20027;-86
2023/04/19 08:35:49;;;;;;;8.85;5.28;;;;;;;12.72;52.52;102502.38;4951661;28;20047;-88
2023/04/19 08:38:14;;;;;;;9.70;5.85;;;;;;;12.65;53.25;102485.44;4952433;28;20050;-87
2023/04/19 08:40:46;;;;;;;8.25;5.63;;;;;;;12.67;50.84;102490.81;4967484;28;20105;-88
2023/04/19 08:43:11;;;;;;;10.20;5.20;;;;;;;12.76;51.59;102501.25;4957262;28;20039;-89
2023/04/19 08:45:38;;;;;;;8.13;5.25;;;;;;;12.85;51.00;102488.94;4971128;28;20290;-89
2023/04/19 08:48:05;;;;;;;8.27;5.45;;;;;;;12.84;52.30;102482.59;4966060;28;20039;-90
2023/04/19 08:50:31;;;;;;;10.35;5.80;;;;;;;12.92;50.84;102495.81;4951239;29;20071;-91
2023/04/19 08:52:59;;;;;;;12.55;5.20;;;;;;;12.86;49.60;102497.03;4957993;28;20428;-88
2023/04/19 08:55:26;;;;;;;9.63;5.43;;;;;;;12.71;51.74;102476.91;4952445;29;20039;-87
2023/04/19 08:57:52;;;;;;;8.98;5.72;;;;;;;12.78;49.20;102488.41;4952471;28;20530;-89
2023/04/19 09:00:18;;;;;;;9.30;5.10;;;;;;;12.83;49.06;102493.59;4976814;28;20065;-90
2023/04/19 09:02:48;;;;;;;10.02;5.05;;;;;;;12.85;50.79;102470.69;4969384;28;20035;-90
2023/04/19 09:05:16;;;;;;;8.82;4.38;;;;;;;12.98;49.71;102492.75;4951820;29;20154;-90
2023/04/19 09:07:42;;;;;;;7.15;4.28;;;;;;;13.04;47.50;102495.13;4958628;28;20031;-88
2023/04/19 09:10:09;;;;;;;6.38;4.25;;;;;;;13.04;49.07;102492.38;4954001;28;20420;-90
2023/04/19 09:12:35;;;;;;;7.38;4.35;;;;;;;13.05;47.37;102493.25;4936435;28;20452;-88
2023/04/19 09:15:03;;;;;;;7.95;4.03;;;;;;;12.99;48.50;102489.91;4981243;28;20070;-88
2023/04/19 09:17:30;;;;;;;10.30;4.68;;;;;;;13.26;49.73;102490.22;4990021;28;20048;-91
2023/04/19 09:19:56;;;;;;;8.27;4.50;;;;;;;13.44;49.85;102476.47;4956433;28;20593;-87
2023/04/19 09:22:21;;;;;;;7.43;4.35;;;;;;;13.40;46.03;102494.03;4990265;28;20486;-91
2023/04/19 09:24:47;;;;;;;10.77;4.55;;;;;;;13.27;47.01;102478.31;4955414;28;20035;-89
2023/04/19 09:27:17;;;;;;;16.35;4.28;;;;;;;13.38;47.59;102488.66;4976920;28;20030;-88
2023/04/19 09:29:52;;;;;;;10.32;4.50;;;;;;;13.37;46.70;102489.59;4960411;28;20038;-88
2023/04/19 09:32:17;;;;;;;11.20;5.75;;;;;;;13.40;44.06;102486.69;4977801;28;20483;-88
2023/04/19 09:34:55;;;;;;;5.95;4.05;;;;;;;13.30;45.01;102503.72;4954415;28;20089;-89
2023/04/19 09:37:21;;;;;;;7.45;3.92;;;;;;;13.05;43.63;102490.53;4958054;28;20437;-91
2023/04/19 09:39:47;;;;;;;6.18;3.38;;;;;;;13.16;44.91;102496.28;4955386;28;20494;-87
2023/04/19 09:42:12;;;;;;;5.75;3.70;;;;;;;13.12;45.77;102497.44;4951685;29;20181;-88
2023/04/19 09:44:38;;;;;;;10.48;3.78;;;;;;;13.18;45.70;102494.34;4969451;28;20081;-89
2023/04/19 09:47:21;;;;;;;4.63;3.55;;;;;;;13.43;46.44;102489.28;4970919;28;20409;-91
2023/04/19 09:49:47;;;;;;;7.28;3.90;;;;;;;13.46;45.63;102477.25;4953499;28;20031;-88
2023/04/19 09:52:14;;;;;;;6.65;3.80;;;;;;;13.59;46.23;102488.38;4952054;28;20042;-90
2023/04/19 09:54:40;;;;;;;5.32;3.45;;;;;;;13.61;45.16;102473.59;4979234;28;20371;-88
2023/04/19 09:57:07;;;;;;;7.70;4.53;;;;;;;13.49;45.17;102479.81;4973713;28;20050;-90
2023/04/19 09:59:32;;;;;;;7.63;3.67;;;;;;;13.53;45.62;102476.81;4963054;28;20049;-87
2023/04/19 10:01:59;;;;;;;7.78;4.03;;;;;;;13.67;45.84;102480.59;4989259;28;20486;-91
2023/04/19 10:04:25;;;;;;;6.15;4.22;;;;;;;13.81;46.10;102475.19;4978299;28;20027;-90
2023/04/19 10:06:52;;;;;;;7.07;3.40;;;;;;;13.72;44.15;102483.94;4962185;28;20053;-88
2023/04/19 10:09:20;;;;;;;7.88;3.90;;;;;;;13.50;45.78;102437.81;4951593;28;20039;-91
2023/04/19 10:11:49;;;;;;;9.20;3.35;;;;;;;13.75;45.89;102476.41;4989964;28;20046;-90
2023/04/19 10:14:16;;;;;;;7.57;3.83;;;;;;;13.68;42.55;102468.69;4984087;28;20497;-91
2023/04/19 10:16:41;;;;;;;6.13;3.03;;;;;;;13.65;42.75;102469.72;4954093;28;20046;-90
2023/04/19 10:19:12;;;;;;;5.80;3.10;;;;;;;13.67;43.51;102472.38;4954226;28;20035;-89
2023/04/19 10:21:40;;;;;;;6.70;3.10;;;;;;;13.59;41.40;102475.56;4953002;28;20137;-89
2023/04/19 10:24:06;;;;;;;5.32;2.85;;;;;;;13.47;41.97;102470.81;4967091;28;20380;-89
2023/04/19 10:27:07;;;;;;;8.68;2.60;;;;;;;13.52;41.41;102464.13;4951483;28;20031;-88
2023/04/19 10:29:59;;;;;;;3.78;2.50;;;;;;;13.41;40.89;102469.31;4955757;28;20026;-86
2023/04/19 10:32:38;;;;;;;5.00;2.67;;;;;;;13.36;40.45;102456.91;4990791;28;20034;-89
2023/04/19 10:35:38;;;;;;;4.38;2.15;;;;;;;13.41;42.28;102458.38;4971419;28;20077;-89
2023/04/19 10:38:08;;;;;;;4.78;2.42;;;;;;;13.63;39.76;102473.53;4950373;28;20122;-91
2023/04/19 10:40:52;;;;;;;4.05;1.90;;;;;;;13.60;40.50;102473.72;4933801;28;20712;-89
2023/04/19 10:43:19;;;;;;;6.18;2.53;;;;;;;13.42;38.31;102460.13;4950480;28;20074;-91
2023/04/19 10:45:45;;;;;;;6.28;2.50;;;;;;;13.50;39.31;102466.03;4982584;28;20034;-92
2023/04/19 10:48:26;;;;;;;5.25;2.40;;;;;;;13.59;38.00;102474.69;4971218;28;20038;-89
2023/04/19 10:51:18;;;;;;;3.92;2.50;;;;;;;13.70;39.96;102461.25;4950759;28;20078;-88
2023/04/19 10:53:55;;;;;;;7.45;2.10;;;;;;;13.75;39.48;102461.84;4976104;28;20189;-88
2023/04/19 10:56:59;;;;;;;2.47;1.92;;;;;;;13.77;40.45;102458.06;4953909;28;20079;-87
2023/04/19 10:59:25;;;;;;;6.68;2.25;;;;;;;13.83;38.47;102466.88;4949630;28;20047;-91
2023/04/19 11:01:55;;;;;;;4.72;2.22;;;;;;;13.76;39.82;102456.31;4969614;28;20398;-87
2023/04/19 11:04:26;;;;;;;3.10;2.13;;;;;;;13.68;37.80;102452.25;4953083;28;20129;-87
2023/04/19 11:06:51;;;;;;;10.18;1.90;;;;;;;13.73;36.67;102461.94;4983406;28;20475;-88
2023/04/19 11:09:33;;;;;;;5.65;2.15;;;;;;;13.74;37.66;102455.50;4960779;28;20086;-87
2023/04/19 11:12:07;;;;;;;4.38;2.10;;;;;;;13.67;37.53;102443.19;4934938;28;20039;-88
2023/04/19 11:14:42;;;;;;;4.93;2.50;;;;;;;13.64;40.52;102447.94;4966575;28;20039;-86
2023/04/19 11:17:18;;;;;;;3.38;2.58;;;;;;;13.84;38.98;102446.75;4969273;28;20487;-88
2023/04/19 11:20:08;;;;;;;3.25;2.10;;;;;;;13.87;38.97;102455.66;4957766;28;20049;-87
2023/04/19 11:22:34;;;;;;;3.60;2.20;;;;;;;13.86;36.44;102436.59;4950279;29;20293;-89
2023/04/19 11:25:07;;;;;;;2.83;2.42;;;;;;;13.85;38.67;102433.00;4976781;28;20407;-86